AirNav   Pilot Hours Calculator
 
 537 users online  

58NE Nebraska Methodist Hospital Heliport
Omaha, Nebraska, USA

GOING TO OMAHA?


FAA INFORMATION EFFECTIVE 15 JULY 2021

Location

FAA Identifier: 58NE
Lat/Long: 41-15-32.9950N 096-02-27.0620W
41-15.549917N 096-02.451033W
41.2591653,-96.0408506
(estimated)
Elevation: 1110 ft. / 338 m (estimated)
Variation: 06E (1985)
Time zone: UTC -5 (UTC -6 during Standard Time)
Zip code: 68114

Heliport Operations

Heliport use: Private use, MEDICAL.
Activation date: 06/1983
Control tower: no
ARTCC: MINNEAPOLIS CENTER
FSS: COLUMBUS FLIGHT SERVICE STATION
Attendance: CONTINUOUS
Wind indicator: lighted
Segmented circle: no

Heliport Communications

WX AWOS-3 at MLE (5 nm SW): 118.25 (402-895-6778)
WX ASOS at OMA (7 nm E): PHONE 402-271-7515
WX AWOS-3 at BTA (10 nm N): 120.225 (402-426-0448)
WX AWOS-3 at CBF (13 nm E): 126.575 (712-323-1542)
WX AWOS-3 at PMV (19 nm S): 118.975 (402-298-7524)

Nearby radio navigation aids

VOR radial/distance  VOR name  Freq  Var
OVRr284/14.8OMAHA VORTAC116.3008E
SCBr122/33.6SCRIBNER VOR/DME111.0006E
LNKr049/37.6LINCOLN VORTAC116.1009E

 
NDB name  Hdg/Dist  Freq  Var  ID
PLATTSMOUTH338/19.832905EPMV .--. -- ...-
WAHOO081/25.240006EAHQ .- .... --.-

Heliport Services

Runway Information

Helipad H1

Dimensions: 75 x 75 ft. / 23 x 23 m
Surface: concrete
Latitude: 41-15.549917N
Longitude: 096-02.451033W
Elevation: 1110.0 ft.
Traffic pattern: leftleft

Heliport Ownership and Management from official FAA records

Ownership: Privately-owned
Owner: NEBRASKA METHODIST HOSPITAL
8303 DODGE ST
OMAHA, NE 68114
Phone 402-390-4446
Manager: JEFFERY FARMER, SYSTEM DIRECTOR
825 S. 169 ST.
OMAHA, NE 68118
Phone 402-354-6862
ADDITIONAL CONTACT: TONY SMITH, DIRECTOR 402-354-4057 TONY.SMITH@NMHS.ORG

Additional Remarks

FOR CD CTC OMAHA APCH AT 402-682-4395.

Instrument Procedures

There are no published instrument procedures at 58NE.

Some nearby airports with instrument procedures:

KMLE - Millard Airport (5 nm SW)
KOMA - Eppley Airfield (7 nm E)
KBTA - Blair Municipal Airport (10 nm N)
KOFF - Offutt Air Force Base (10 nm SE)
KCBF - Council Bluffs Municipal Airport (13 nm E)
KPMV - Plattsmouth Municipal Airport/Douglas V Duey Field (19 nm S)
 
Loc | Ops | Rwys | IFR | FBO | Links
Com | Nav | Svcs | Stats | Notes
Area around 58NE (Nebraska Methodist Hospital Heliport)
 
Road maps at: MapQuest Bing Google
 
Aerial photo
No photo
 
Sectional chart

 
Airport distance calculator
Flying to Nebraska Methodist Hospital Heliport? Find the distance to fly.

From to 58NE

Sunrise and sunset
Times for 31-Jul-2021
 Local
(UTC-5)
 Zulu
(UTC)
Morning civil twilight05:4810:48
Sunrise06:1911:19
Sunset20:4201:42
Evening civil twilight21:1302:13

Current date and time
Zulu (UTC)  31-Jul-2021 05:31:52
Local (UTC-5)  31-Jul-2021 00:31:52
 
METAR
KMLE 
5nm SW 
310515Z AUTO 11006KT 10SM SCT038 SCT110 24/20 A3001 RMK AO2 LTG DSNT E AND NW T02350202
KOMA 
7nm NE 
310452Z 06006KT 6SM HZ SCT013 BKN035 OVC120 23/20 A3003 RMK AO2 SLP162 T02280200
KBTA 
10nm N 
310515Z AUTO 08008KT 10SM VCTS BKN010 BKN029 BKN120 21/20 A3002 RMK AO2 LTG DSNT W THRU E T02080195
KOFF 
10nm SE 
310456Z 08007KT 10SM BKN150 22/20 A3004 RMK AO2A SLP170 T02240203 PWINO PNO FZRANO TSNO VISNO RWY12 CHINO RWY12 $
KCBF 
12nm E 
310515Z AUTO 08009KT 10SM SCT007 SCT037 SCT110 21/21 A3002 RMK AO2
KPMV 
19nm S 
310215Z AUTO 02011G16KT 10SM -TSRA BKN027 OVC031 28/23 A3001 RMK AO2 LTG DSNT ALQS T02750230
TAF
KOMA 
7nm NE 
301720Z 3018/3118 06011KT 4SM FU SCT040 BKN120 FM310400 08011KT 5SM FU VCTS BKN040CB FM310600 08008KT 4SM FU VCTS OVC015CB TEMPO 3106/3107 4SM -TSRA FU BKN015CB FM310900 03007KT 4SM FU VCTS BKN015CB FM311400 01006KT 2SM FU OVC007
NOTAMs
Click for the latest NOTAMs
NOTAMs are issued by the DoD/FAA and will open in a separate window not controlled by AirNav.

 

 
 

Would you like to see your business listed on this page?

 If your business provides an interesting product or service to pilots, flight crews, aircraft, or users of the Nebraska Methodist Hospital Heliport, you should consider listing it here.  To start the listing process, click on the button below
 
Add a business
 

Other Pages about Nebraska Methodist Hospital Heliport

Update a link
 
Copyright © AirNav, LLC. All rights reserved. Privacy Policy  Contact